Time;durP1;ratioP1;P1;durP2;ratioP2;P2;SDS_P1;SDS_P2;PMS_P1;PMS_P2;Temp;Humidity;BMP_temperature;BMP_pressure;BME280_temperature;BME280_humidity;BME280_pressure;Samples;Min_cycle;Max_cycle;Signal;HPM_P1;HPM_P2
2024/03/28 00:02:02;;;;;;;5.85;2.05;;;8.80;99.90;;;;;;5010138;28;20037;-73
2024/03/28 00:04:28;;;;;;;3.85;1.95;;;8.80;99.90;;;;;;4987959;28;20522;-72
2024/03/28 00:06:54;;;;;;;3.33;1.55;;;8.80;99.90;;;;;;5010982;28;20045;-72
2024/03/28 00:09:21;;;;;;;3.05;1.35;;;8.80;99.90;;;;;;5009290;28;20029;-72
2024/03/28 00:11:46;;;;;;;3.63;1.80;;;8.80;99.90;;;;;;5009671;28;20041;-70
2024/03/28 00:14:13;;;;;;;2.55;1.38;;;8.80;99.90;;;;;;4987692;28;20041;-72
2024/03/28 00:16:39;;;;;;;3.35;1.67;;;8.80;99.90;;;;;;5007563;28;20030;-71
2024/03/28 00:19:05;;;;;;;3.10;1.45;;;8.80;99.90;;;;;;5010546;28;20029;-73
2024/03/28 00:21:31;;;;;;;3.50;1.30;;;8.80;99.90;;;;;;4983963;28;20054;-73
2024/03/28 00:23:56;;;;;;;6.93;1.85;;;8.80;99.90;;;;;;4993282;28;20499;-73
2024/03/28 00:26:22;;;;;;;3.00;1.42;;;8.90;99.90;;;;;;5004922;28;20034;-73
2024/03/28 00:28:48;;;;;;;3.40;1.25;;;8.80;99.90;;;;;;5004507;28;20433;-73
2024/03/28 00:31:13;;;;;;;4.22;1.30;;;8.80;99.90;;;;;;5006303;28;20077;-73
2024/03/28 00:33:39;;;;;;;2.35;1.55;;;8.80;99.90;;;;;;5005552;28;20035;-72
2024/03/28 00:36:04;;;;;;;2.83;1.60;;;8.80;99.90;;;;;;5011166;28;20542;-73
2024/03/28 00:38:30;;;;;;;3.00;1.50;;;8.70;99.90;;;;;;5004602;28;20500;-73
2024/03/28 00:40:56;;;;;;;1.85;1.33;;;8.70;99.90;;;;;;5006998;28;20038;-74
2024/03/28 00:43:22;;;;;;;3.38;1.50;;;8.70;99.90;;;;;;5008133;28;20674;-71
2024/03/28 00:45:48;;;;;;;4.70;1.33;;;8.80;99.90;;;;;;5011004;28;20091;-71
2024/03/28 00:48:18;;;;;;;3.33;1.60;;;8.80;99.90;;;;;;5006626;28;20149;-73
2024/03/28 00:50:51;;;;;;;3.08;1.83;;;8.60;99.90;;;;;;5009939;28;20034;-72
2024/03/28 00:53:17;;;;;;;3.40;1.40;;;8.50;99.90;;;;;;5009694;28;20022;-72
2024/03/28 00:55:43;;;;;;;3.20;1.58;;;8.50;99.90;;;;;;5007087;28;20041;-72
2024/03/28 00:58:08;;;;;;;3.53;2.05;;;8.50;99.90;;;;;;4991921;28;20068;-71
2024/03/28 01:00:34;;;;;;;4.20;1.38;;;8.40;99.90;;;;;;5008586;28;20034;-72
2024/03/28 01:02:59;;;;;;;1.88;1.20;;;8.30;99.90;;;;;;5008934;28;20418;-73
2024/03/28 01:05:25;;;;;;;4.25;1.33;;;8.30;99.90;;;;;;5007531;28;20070;-72
2024/03/28 01:07:51;;;;;;;6.15;1.55;;;8.20;99.90;;;;;;5012148;28;20037;-72
2024/03/28 01:10:16;;;;;;;1.58;0.85;;;8.20;99.90;;;;;;5009841;28;20034;-72
2024/03/28 01:12:42;;;;;;;9.18;1.30;;;8.20;99.90;;;;;;5011682;28;20037;-73
2024/03/28 01:15:08;;;;;;;3.10;1.50;;;8.10;99.90;;;;;;5009281;28;20041;-73
2024/03/28 01:17:33;;;;;;;3.58;1.33;;;8.10;99.90;;;;;;5008321;28;20030;-73
2024/03/28 01:19:59;;;;;;;4.45;1.30;;;8.00;99.90;;;;;;5007520;28;20038;-73
2024/03/28 01:22:24;;;;;;;2.40;1.20;;;8.10;99.90;;;;;;5007192;28;20439;-73
2024/03/28 01:24:50;;;;;;;4.80;1.20;;;8.10;99.90;;;;;;5012454;28;20507;-72
2024/03/28 01:27:16;;;;;;;3.75;1.35;;;8.10;99.90;;;;;;5014729;28;20053;-72
2024/03/28 01:29:41;;;;;;;2.28;1.13;;;8.00;99.90;;;;;;4997291;28;20151;-72
2024/03/28 01:32:07;;;;;;;2.42;1.13;;;8.10;99.90;;;;;;5013282;28;20134;-71
2024/03/28 01:34:33;;;;;;;5.10;1.95;;;8.10;99.90;;;;;;5014984;28;20066;-73
2024/03/28 01:36:58;;;;;;;2.85;1.20;;;8.00;99.90;;;;;;5011175;28;20045;-73
2024/03/28 01:39:24;;;;;;;2.70;1.33;;;7.90;99.90;;;;;;5013358;28;20430;-72
2024/03/28 01:41:50;;;;;;;2.50;1.20;;;7.90;99.90;;;;;;4997269;28;20033;-71
2024/03/28 01:44:17;;;;;;;2.20;1.10;;;8.00;99.90;;;;;;5011641;28;20037;-72
2024/03/28 01:46:47;;;;;;;2.60;1.00;;;8.10;99.90;;;;;;5015994;28;20040;-72
2024/03/28 01:49:15;;;;;;;2.95;1.45;;;8.00;99.90;;;;;;5010482;28;20030;-73
2024/03/28 01:51:41;;;;;;;3.20;1.70;;;8.00;99.90;;;;;;5014595;28;20030;-70
2024/03/28 01:54:10;;;;;;;2.42;1.35;;;8.00;99.90;;;;;;5015295;28;20046;-72
2024/03/28 01:56:36;;;;;;;4.07;1.48;;;8.00;99.90;;;;;;5009791;28;20210;-72
2024/03/28 01:59:03;;;;;;;2.75;1.58;;;7.90;99.90;;;;;;5015923;28;20041;-72
2024/03/28 02:01:30;;;;;;;3.63;2.10;;;7.80;99.90;;;;;;5014143;28;20124;-72
2024/03/28 02:03:56;;;;;;;5.75;2.00;;;7.80;99.90;;;;;;5015429;28;20185;-72
2024/03/28 02:06:22;;;;;;;3.13;1.60;;;7.70;99.90;;;;;;5012004;28;20109;-73
2024/03/28 02:08:49;;;;;;;3.47;1.80;;;7.70;99.90;;;;;;4998619;28;20029;-73
2024/03/28 02:11:15;;;;;;;2.83;1.70;;;7.60;99.90;;;;;;5010722;28;20033;-73
2024/03/28 02:13:41;;;;;;;5.63;1.60;;;7.60;99.90;;;;;;5017504;28;20041;-71
2024/03/28 02:16:06;;;;;;;3.40;2.13;;;7.60;99.90;;;;;;5014776;28;20482;-73
2024/03/28 02:18:32;;;;;;;4.30;1.50;;;7.50;99.90;;;;;;5014261;28;20396;-73
2024/03/28 02:20:57;;;;;;;3.00;1.73;;;7.50;99.90;;;;;;4996620;28;20428;-73
2024/03/28 02:23:23;;;;;;;1.70;1.20;;;7.50;99.90;;;;;;5012746;28;20032;-73
2024/03/28 02:25:49;;;;;;;5.93;1.40;;;7.50;99.90;;;;;;5017892;28;20059;-73
2024/03/28 02:28:15;;;;;;;2.83;1.20;;;7.50;99.90;;;;;;4997106;28;20936;-73
2024/03/28 02:30:41;;;;;;;5.40;1.55;;;7.40;99.90;;;;;;5018063;28;20025;-73
2024/03/28 02:33:07;;;;;;;4.25;1.70;;;7.40;99.90;;;;;;5014117;28;20096;-72
2024/03/28 02:35:33;;;;;;;6.07;1.50;;;7.40;99.90;;;;;;5010376;28;20066;-73
2024/03/28 02:37:59;;;;;;;2.83;1.60;;;7.40;99.90;;;;;;5011989;28;20038;-71
2024/03/28 02:40:25;;;;;;;4.88;1.33;;;7.40;99.90;;;;;;5019869;28;20052;-73
2024/03/28 02:42:51;;;;;;;3.65;1.60;;;7.40;99.90;;;;;;5015611;28;20044;-71
2024/03/28 02:45:17;;;;;;;3.90;1.75;;;7.40;99.90;;;;;;5013608;28;20042;-74
2024/03/28 02:47:43;;;;;;;3.63;2.00;;;7.40;99.90;;;;;;5021029;28;20031;-72
2024/03/28 02:50:09;;;;;;;8.52;1.70;;;7.40;99.90;;;;;;5013917;28;20033;-70
2024/03/28 02:52:36;;;;;;;2.35;1.40;;;7.40;99.90;;;;;;5021084;28;20668;-72
2024/03/28 02:55:02;;;;;;;2.90;1.40;;;7.40;99.90;;;;;;5005284;28;20125;-72
2024/03/28 02:57:28;;;;;;;7.63;2.47;;;7.40;99.90;;;;;;5015766;28;20399;-72
2024/03/28 02:59:54;;;;;;;3.90;1.30;;;7.40;99.90;;;;;;5017840;28;20044;-73
2024/03/28 03:02:20;;;;;;;3.38;1.10;;;7.40;99.90;;;;;;5013216;28;20038;-72
2024/03/28 03:04:45;;;;;;;2.50;1.33;;;7.40;99.90;;;;;;5000805;28;20075;-72
2024/03/28 03:07:11;;;;;;;3.03;1.30;;;7.40;99.90;;;;;;5013029;28;20484;-74
2024/03/28 03:09:36;;;;;;;3.65;1.50;;;7.50;99.90;;;;;;5017086;28;20038;-72
2024/03/28 03:12:02;;;;;;;2.00;1.13;;;7.50;99.90;;;;;;5017114;28;20148;-73
2024/03/28 03:14:29;;;;;;;2.13;1.17;;;7.50;99.90;;;;;;5012639;28;20053;-73
2024/03/28 03:16:54;;;;;;;2.20;1.08;;;7.60;99.90;;;;;;5018614;28;20041;-72
2024/03/28 03:19:20;;;;;;;2.75;1.02;;;7.60;99.90;;;;;;5012920;28;20095;-73
2024/03/28 03:21:49;;;;;;;6.70;1.23;;;7.60;99.90;;;;;;5018912;28;20037;-72
2024/03/28 03:24:15;;;;;;;2.72;0.90;;;7.60;99.90;;;;;;4994861;28;20152;-73
2024/03/28 03:26:49;;;;;;;3.88;1.20;;;7.60;99.90;;;;;;5016026;28;20430;-73
2024/03/28 03:34:45;;;;;;;2.10;0.90;;;7.50;99.90;;;;;;5011452;28;20099;-73
2024/03/28 03:37:20;;;;;;;1.63;0.85;;;7.50;99.90;;;;;;5016482;28;20038;-72
2024/03/28 03:39:45;;;;;;;2.90;1.05;;;7.50;99.90;;;;;;5017457;28;20056;-71
2024/03/28 03:42:11;;;;;;;1.20;0.80;;;7.50;99.90;;;;;;5015651;28;20038;-72
2024/03/28 03:44:38;;;;;;;4.32;0.80;;;7.60;99.90;;;;;;5018473;28;20095;-73
2024/03/28 03:47:03;;;;;;;3.90;1.40;;;7.60;99.90;;;;;;5014156;28;20037;-73
2024/03/28 03:49:29;;;;;;;2.03;0.98;;;7.50;99.90;;;;;;5021682;28;20026;-73
2024/03/28 03:51:54;;;;;;;3.53;1.42;;;7.50;99.90;;;;;;5016486;28;20133;-73
2024/03/28 03:54:20;;;;;;;4.25;0.95;;;7.60;99.90;;;;;;5015550;28;20142;-73
2024/03/28 03:56:47;;;;;;;4.95;1.55;;;7.60;99.90;;;;;;4987048;28;20056;-74
2024/03/28 03:59:13;;;;;;;1.50;0.90;;;7.60;99.90;;;;;;5010993;28;20041;-73
2024/03/28 04:01:38;;;;;;;3.75;0.75;;;7.60;99.90;;;;;;5003936;28;20041;-73
2024/03/28 04:04:04;;;;;;;5.43;1.23;;;7.50;99.90;;;;;;5005200;28;20037;-73
2024/03/28 04:06:30;;;;;;;3.05;1.13;;;7.50;99.90;;;;;;5004939;28;20730;-72
2024/03/28 04:08:56;;;;;;;2.38;1.20;;;7.50;99.90;;;;;;5008673;28;20046;-73
2024/03/28 04:11:21;;;;;;;2.35;1.30;;;7.60;99.90;;;;;;5009206;28;20033;-73
2024/03/28 04:13:47;;;;;;;1.30;0.90;;;7.60;99.90;;;;;;5007179;28;20041;-70
2024/03/28 04:16:13;;;;;;;1.58;0.80;;;7.60;99.90;;;;;;5013203;28;20037;-73
2024/03/28 04:18:38;;;;;;;1.52;0.82;;;7.60;99.90;;;;;;5006584;28;20038;-71
2024/03/28 04:21:04;;;;;;;5.32;1.10;;;7.60;99.90;;;;;;5008232;28;20049;-72
2024/03/28 04:23:29;;;;;;;2.70;0.88;;;7.60;99.90;;;;;;5007487;28;20418;-72
2024/03/28 04:25:56;;;;;;;2.13;1.35;;;7.60;99.90;;;;;;5008927;28;20053;-71
2024/03/28 04:28:22;;;;;;;1.67;1.00;;;7.60;99.90;;;;;;5006642;28;20041;-70
2024/03/28 04:30:48;;;;;;;1.88;0.88;;;7.60;99.90;;;;;;5004823;28;20124;-72
2024/03/28 04:33:13;;;;;;;1.40;0.70;;;7.60;99.90;;;;;;5009563;28;20107;-72
2024/03/28 04:35:40;;;;;;;2.70;1.20;;;7.60;99.90;;;;;;5004905;28;20081;-73
2024/03/28 04:38:06;;;;;;;2.60;0.70;;;7.60;99.90;;;;;;4988392;28;20096;-73
2024/03/28 04:40:32;;;;;;;2.42;0.70;;;7.60;99.90;;;;;;5003988;28;20041;-72
2024/03/28 04:42:58;;;;;;;2.10;0.95;;;7.60;99.90;;;;;;5004540;28;20125;-71
2024/03/28 04:45:23;;;;;;;3.40;0.65;;;7.70;99.90;;;;;;5003308;28;20101;-73
2024/03/28 04:47:53;;;;;;;2.28;0.95;;;7.70;99.90;;;;;;5001549;28;20509;-73
2024/03/28 04:50:19;;;;;;;2.42;0.93;;;7.70;99.90;;;;;;4990706;28;20056;-72
2024/03/28 04:52:45;;;;;;;2.15;0.98;;;7.60;99.90;;;;;;5007002;28;20584;-71
2024/03/28 04:55:12;;;;;;;2.72;1.02;;;7.70;99.90;;;;;;5010164;28;20041;-72
2024/03/28 04:57:38;;;;;;;2.90;0.88;;;7.70;99.90;;;;;;4987249;28;20062;-70
2024/03/28 05:00:08;;;;;;;3.22;1.52;;;7.70;99.90;;;;;;5004473;28;20049;-71
2024/03/28 05:02:34;;;;;;;2.07;0.60;;;7.70;99.90;;;;;;5011532;28;20094;-72
2024/03/28 05:04:59;;;;;;;4.97;0.98;;;7.80;99.90;;;;;;5013374;28;20033;-71
2024/03/28 05:07:25;;;;;;;2.40;1.02;;;7.70;99.90;;;;;;5012365;28;20521;-73
2024/03/28 05:09:50;;;;;;;3.97;0.80;;;7.70;99.90;;;;;;5010298;28;20441;-71
2024/03/28 05:12:16;;;;;;;2.85;1.17;;;7.70;99.90;;;;;;5016429;28;20508;-73
2024/03/28 05:14:42;;;;;;;1.60;0.73;;;7.70;99.90;;;;;;4992444;28;20049;-73
2024/03/28 05:17:08;;;;;;;5.60;1.00;;;7.70;99.90;;;;;;5016790;28;20510;-72
2024/03/28 05:19:34;;;;;;;5.38;0.95;;;7.70;99.90;;;;;;4991170;28;20116;-72
2024/03/28 05:22:00;;;;;;;1.10;0.60;;;7.70;99.90;;;;;;5014849;28;20037;-69
2024/03/28 05:24:26;;;;;;;2.38;0.73;;;7.70;99.90;;;;;;5010812;28;20037;-74
2024/03/28 05:26:51;;;;;;;4.35;0.77;;;7.70;99.90;;;;;;5009865;28;20042;-72
2024/03/28 05:29:17;;;;;;;2.95;0.98;;;7.80;99.90;;;;;;5012857;28;20051;-72
2024/03/28 05:31:42;;;;;;;6.28;1.40;;;7.80;99.90;;;;;;5014559;28;20042;-73
2024/03/28 05:34:08;;;;;;;3.97;1.48;;;7.80;99.90;;;;;;5006629;28;20085;-73
2024/03/28 05:36:37;;;;;;;1.83;0.63;;;7.90;99.90;;;;;;5006775;28;20042;-72
2024/03/28 05:39:04;;;;;;;2.38;1.00;;;7.90;99.90;;;;;;5003386;28;20034;-73
2024/03/28 05:41:31;;;;;;;1.77;0.90;;;7.80;99.90;;;;;;5001911;28;20037;-72
2024/03/28 05:43:56;;;;;;;3.40;0.88;;;7.90;99.90;;;;;;5014805;28;20037;-72
2024/03/28 05:46:22;;;;;;;3.03;0.90;;;7.90;99.90;;;;;;4987227;28;20394;-73
2024/03/28 05:48:48;;;;;;;2.15;0.93;;;7.90;99.90;;;;;;4993501;28;20080;-73
2024/03/28 05:51:13;;;;;;;3.08;0.88;;;7.90;99.90;;;;;;5011121;28;20570;-72
2024/03/28 05:53:45;;;;;;;2.17;0.70;;;8.00;99.90;;;;;;5010526;28;20035;-72
2024/03/28 05:56:11;;;;;;;5.00;0.90;;;8.10;99.90;;;;;;4988108;28;20104;-73
2024/03/28 05:58:37;;;;;;;8.10;1.67;;;8.10;99.90;;;;;;5011448;28;20620;-73
2024/03/28 06:01:04;;;;;;;2.35;0.90;;;8.00;99.90;;;;;;4991892;28;20042;-72
2024/03/28 06:03:29;;;;;;;1.55;1.08;;;8.00;99.90;;;;;;5007317;28;20496;-72
2024/03/28 06:05:55;;;;;;;2.47;1.35;;;8.00;99.90;;;;;;5008377;28;20033;-73
2024/03/28 06:08:21;;;;;;;3.80;1.10;;;7.90;99.90;;;;;;5013066;28;20833;-74
2024/03/28 06:10:46;;;;;;;2.10;0.70;;;7.90;99.90;;;;;;5011165;28;20026;-72
2024/03/28 06:13:12;;;;;;;1.83;0.85;;;7.80;99.90;;;;;;5003467;28;20411;-73
2024/03/28 06:15:38;;;;;;;4.03;1.83;;;7.90;99.90;;;;;;5007866;28;20034;-73
2024/03/28 06:18:04;;;;;;;2.03;1.02;;;8.00;99.90;;;;;;5005788;28;20034;-71
2024/03/28 06:20:30;;;;;;;1.92;0.98;;;8.00;99.90;;;;;;5003043;28;20038;-72
2024/03/28 06:22:56;;;;;;;3.40;1.08;;;8.10;99.90;;;;;;4992203;28;20144;-73
2024/03/28 06:25:21;;;;;;;2.22;0.98;;;8.00;99.90;;;;;;5001693;28;20046;-73
2024/03/28 06:27:47;;;;;;;2.67;1.00;;;8.10;99.90;;;;;;5002610;28;20049;-69
2024/03/28 06:30:13;;;;;;;2.42;1.13;;;8.20;99.90;;;;;;5001713;28;20038;-74
2024/03/28 06:32:38;;;;;;;7.18;1.80;;;8.20;99.90;;;;;;5006642;28;20461;-72
2024/03/28 06:35:04;;;;;;;1.55;1.02;;;8.20;99.90;;;;;;5007570;28;20045;-72
2024/03/28 06:37:30;;;;;;;3.83;1.08;;;8.40;99.90;;;;;;5004006;28;20072;-73
2024/03/28 06:39:55;;;;;;;2.30;0.95;;;8.50;99.90;;;;;;5006642;28;20045;-73
2024/03/28 06:42:21;;;;;;;1.35;0.75;;;8.70;99.90;;;;;;5002077;28;20048;-71
2024/03/28 06:44:50;;;;;;;5.00;1.85;;;8.80;99.90;;;;;;5009178;28;20112;-73
2024/03/28 06:47:17;;;;;;;2.05;1.05;;;8.90;99.90;;;;;;4998047;28;20038;-73
2024/03/28 06:49:43;;;;;;;1.08;0.75;;;8.90;99.90;;;;;;5007711;28;20574;-73
2024/03/28 06:52:09;;;;;;;2.92;1.00;;;8.90;99.90;;;;;;5006644;28;20077;-73
2024/03/28 06:54:34;;;;;;;1.77;1.10;;;9.00;99.90;;;;;;4990655;28;20103;-72
2024/03/28 06:57:00;;;;;;;3.75;0.77;;;9.00;99.90;;;;;;5007642;28;20030;-70
2024/03/28 06:59:26;;;;;;;1.83;1.10;;;9.00;99.90;;;;;;5006973;28;20034;-73
2024/03/28 07:01:52;;;;;;;9.60;0.70;;;9.10;99.90;;;;;;5001892;28;20042;-71
2024/03/28 07:04:17;;;;;;;3.08;1.20;;;9.10;99.90;;;;;;4992177;28;20046;-74
2024/03/28 07:06:43;;;;;;;7.40;1.52;;;9.00;99.90;;;;;;5006256;28;20177;-73
2024/03/28 07:09:09;;;;;;;2.42;1.20;;;9.00;99.90;;;;;;4989308;28;20034;-71
2024/03/28 07:11:35;;;;;;;2.53;1.38;;;8.90;99.90;;;;;;5003944;28;20089;-72
2024/03/28 07:14:02;;;;;;;2.28;1.00;;;8.90;99.90;;;;;;5008517;28;20030;-71
2024/03/28 07:16:28;;;;;;;3.38;1.27;;;8.90;99.90;;;;;;5002392;28;20498;-72
2024/03/28 07:18:55;;;;;;;2.90;1.45;;;8.80;99.90;;;;;;5005617;28;20049;-73
2024/03/28 07:21:21;;;;;;;1.80;0.93;;;8.80;99.90;;;;;;5002388;28;20030;-73
2024/03/28 07:23:47;;;;;;;2.15;1.20;;;8.80;99.90;;;;;;5003633;28;20022;-73
2024/03/28 07:26:13;;;;;;;4.03;0.98;;;8.80;99.90;;;;;;5005497;28;20053;-73
2024/03/28 07:28:39;;;;;;;3.40;1.48;;;8.80;99.90;;;;;;5005197;28;20060;-74
2024/03/28 07:31:04;;;;;;;2.58;1.10;;;8.70;99.90;;;;;;5007175;28;20076;-70
2024/03/28 07:33:30;;;;;;;6.35;1.20;;;8.70;99.90;;;;;;5006513;28;20033;-73
2024/03/28 07:35:56;;;;;;;2.00;1.10;;;8.70;99.90;;;;;;5006025;28;20527;-73
2024/03/28 07:38:21;;;;;;;2.10;1.13;;;8.70;99.90;;;;;;5007428;28;20045;-72
2024/03/28 07:40:48;;;;;;;2.85;1.25;;;8.70;99.90;;;;;;5008085;28;20034;-73
2024/03/28 07:43:13;;;;;;;1.60;1.02;;;8.60;99.90;;;;;;5002348;28;20037;-73
2024/03/28 07:45:41;;;;;;;3.40;0.73;;;8.60;99.90;;;;;;5008881;28;20033;-73
2024/03/28 07:48:07;;;;;;;2.45;0.60;;;8.60;99.90;;;;;;5007726;28;20557;-74
2024/03/28 07:50:33;;;;;;;2.15;0.70;;;8.60;99.90;;;;;;5004301;28;20096;-72
2024/03/28 07:52:58;;;;;;;1.77;0.88;;;8.50;99.90;;;;;;5006843;28;20034;-71
2024/03/28 07:55:24;;;;;;;4.95;1.23;;;8.40;99.90;;;;;;5000450;28;20103;-71
2024/03/28 07:57:50;;;;;;;3.55;0.95;;;8.40;99.90;;;;;;5006282;28;20403;-72
2024/03/28 08:00:16;;;;;;;1.33;0.90;;;8.30;99.90;;;;;;4992528;28;20392;-72
2024/03/28 08:02:44;;;;;;;3.97;1.05;;;8.20;99.90;;;;;;4990680;28;20102;-73
2024/03/28 08:05:12;;;;;;;1.55;0.70;;;8.10;99.90;;;;;;5004017;28;20038;-69
2024/03/28 08:07:38;;;;;;;0.90;0.70;;;8.00;99.90;;;;;;5002259;28;20045;-71
2024/03/28 08:10:03;;;;;;;1.05;0.20;;;7.90;99.90;;;;;;5001467;28;20046;-71
2024/03/28 08:12:29;;;;;;;0.65;0.20;;;7.80;99.90;;;;;;5007671;28;20049;-71
2024/03/28 08:14:55;;;;;;;1.13;0.17;;;7.70;99.90;;;;;;5007814;28;20064;-73
2024/03/28 08:17:21;;;;;;;3.15;0.10;;;7.70;99.90;;;;;;5005256;28;20622;-72
2024/03/28 08:19:47;;;;;;;0.52;0.20;;;7.60;99.90;;;;;;5006501;28;20052;-72
2024/03/28 08:22:16;;;;;;;0.70;0.22;;;7.50;99.90;;;;;;5005825;28;20060;-72
2024/03/28 08:24:42;;;;;;;0.38;0.20;;;7.50;99.90;;;;;;5005344;28;20076;-71
2024/03/28 08:27:07;;;;;;;0.15;0.03;;;7.50;99.90;;;;;;5004017;28;20038;-71
2024/03/28 08:29:33;;;;;;;0.80;0.57;;;7.50;99.90;;;;;;5009150;28;20037;-71
2024/03/28 08:31:59;;;;;;;1.02;0.20;;;7.50;99.90;;;;;;5004619;28;20098;-70
2024/03/28 08:34:25;;;;;;;0.50;0.20;;;7.40;99.90;;;;;;5005715;28;20037;-67
2024/03/28 08:36:51;;;;;;;0.90;0.20;;;7.40;99.90;;;;;;5007373;28;20079;-70
2024/03/28 08:39:22;;;;;;;1.75;0.20;;;7.40;99.90;;;;;;5001218;28;20037;-72
2024/03/28 08:41:48;;;;;;;0.77;0.28;;;7.40;99.90;;;;;;4997820;28;20080;-72
2024/03/28 08:44:14;;;;;;;0.70;0.20;;;7.40;99.90;;;;;;4999183;28;20410;-71
2024/03/28 08:46:40;;;;;;;5.03;0.30;;;7.40;99.90;;;;;;4998228;28;20048;-71
2024/03/28 08:49:08;;;;;;;1.95;0.30;;;7.40;99.90;;;;;;5001308;28;20046;-71
2024/03/28 08:51:33;;;;;;;0.63;0.20;;;7.40;99.90;;;;;;5000663;28;20048;-69
2024/03/28 08:53:59;;;;;;;1.50;0.20;;;7.40;99.90;;;;;;4986356;28;20042;-71
2024/03/28 08:56:24;;;;;;;0.35;0.17;;;7.40;99.90;;;;;;5002938;28;20117;-71
2024/03/28 08:58:50;;;;;;;1.95;0.10;;;7.40;99.90;;;;;;5002079;28;20118;-71
2024/03/28 09:01:16;;;;;;;1.13;0.40;;;7.50;99.90;;;;;;4980778;28;20033;-71
2024/03/28 09:03:42;;;;;;;0.52;0.20;;;7.50;99.90;;;;;;5000019;28;20026;-71
2024/03/28 09:06:09;;;;;;;0.70;0.20;;;7.50;99.90;;;;;;4988620;28;20030;-70
2024/03/28 09:08:36;;;;;;;2.20;0.30;;;7.50;99.90;;;;;;5000926;28;20026;-70
2024/03/28 09:11:03;;;;;;;0.65;0.20;;;7.50;99.90;;;;;;4998463;28;20462;-69
2024/03/28 09:13:29;;;;;;;0.85;0.38;;;7.50;99.90;;;;;;5003549;28;20037;-71
2024/03/28 09:15:55;;;;;;;4.15;1.00;;;7.50;99.90;;;;;;5002160;28;20053;-68
2024/03/28 09:18:21;;;;;;;1.25;0.32;;;7.50;99.90;;;;;;5001145;28;20038;-70
2024/03/28 09:20:46;;;;;;;0.85;0.30;;;7.60;99.90;;;;;;5001490;28;20111;-72
2024/03/28 09:23:12;;;;;;;0.40;0.20;;;7.60;99.90;;;;;;5000152;28;20034;-72
2024/03/28 09:25:38;;;;;;;0.98;0.50;;;7.60;99.90;;;;;;5000498;28;20416;-71
2024/03/28 09:28:05;;;;;;;1.38;0.60;;;7.60;99.90;;;;;;4999034;28;20062;-70
2024/03/28 09:30:30;;;;;;;1.05;0.50;;;7.70;99.90;;;;;;5002111;28;20034;-72
2024/03/28 09:32:56;;;;;;;2.22;0.30;;;7.70;99.90;;;;;;5000517;28;20045;-72
2024/03/28 09:35:22;;;;;;;2.70;0.50;;;7.70;99.90;;;;;;4999696;28;20042;-71
2024/03/28 09:37:47;;;;;;;1.10;0.50;;;7.70;99.90;;;;;;5000105;28;21113;-71
2024/03/28 09:40:16;;;;;;;0.88;0.47;;;7.70;99.90;;;;;;5004975;28;20038;-72
2024/03/28 09:42:44;;;;;;;3.08;0.57;;;7.70;99.90;;;;;;4979337;28;20114;-72
2024/03/28 09:45:12;;;;;;;0.98;0.50;;;7.70;99.90;;;;;;5005921;28;20491;-70
2024/03/28 09:47:38;;;;;;;1.50;0.68;;;7.70;99.90;;;;;;5005621;28;20044;-71
2024/03/28 09:50:11;;;;;;;1.38;0.63;;;7.70;99.90;;;;;;5008269;28;20045;-71
2024/03/28 09:52:38;;;;;;;0.82;0.50;;;7.70;99.90;;;;;;5006654;28;20030;-71
2024/03/28 09:55:07;;;;;;;4.32;1.60;;;7.60;99.90;;;;;;5010280;28;20052;-70
2024/03/28 09:57:34;;;;;;;2.38;1.25;;;7.60;99.90;;;;;;5004495;28;20112;-72
2024/03/28 10:00:00;;;;;;;2.30;0.95;;;7.60;99.90;;;;;;5005803;28;20041;-71
2024/03/28 10:02:53;;;;;;;3.25;0.80;;;7.70;99.90;;;;;;5007243;28;20061;-71
2024/03/28 10:05:19;;;;;;;2.65;1.08;;;7.80;99.90;;;;;;5005002;28;20500;-70
2024/03/28 10:07:48;;;;;;;1.67;0.85;;;7.90;99.90;;;;;;4998952;28;20092;-71
2024/03/28 10:10:14;;;;;;;2.40;1.40;;;7.90;99.90;;;;;;5001846;28;20033;-71
2024/03/28 10:13:04;;;;;;;4.07;1.17;;;8.00;99.90;;;;;;5004474;28;20125;-72
2024/03/28 10:15:32;;;;;;;2.67;1.38;;;8.10;99.90;;;;;;5003015;28;20038;-71
2024/03/28 10:17:59;;;;;;;1.73;0.98;;;8.20;99.90;;;;;;5004989;28;20045;-72
2024/03/28 10:20:24;;;;;;;3.08;1.17;;;8.30;99.90;;;;;;5006340;28;20030;-69
2024/03/28 10:22:53;;;;;;;2.25;1.40;;;8.30;99.90;;;;;;5013458;28;20065;-70
2024/03/28 10:25:25;;;;;;;3.78;1.23;;;8.40;99.90;;;;;;5013761;28;20336;-72
2024/03/28 10:28:00;;;;;;;1.92;1.25;;;8.50;99.90;;;;;;5008747;28;21784;-72
2024/03/28 10:30:26;;;;;;;2.60;1.23;;;8.50;99.90;;;;;;5009377;28;20068;-72
2024/03/28 10:33:04;;;;;;;4.78;1.30;;;8.50;99.90;;;;;;5013894;28;20054;-71
2024/03/28 10:35:41;;;;;;;2.30;1.30;;;8.60;99.90;;;;;;5012159;28;20044;-71
2024/03/28 10:38:07;;;;;;;2.17;1.13;;;8.70;99.90;;;;;;5003991;28;20117;-72
2024/03/28 10:40:36;;;;;;;2.30;1.05;;;8.90;99.90;;;;;;5015409;28;20075;-72
2024/03/28 10:43:04;;;;;;;3.17;1.98;;;9.10;99.90;;;;;;5012259;28;20034;-73
2024/03/28 10:45:34;;;;;;;3.63;1.25;;;9.10;99.90;;;;;;5010503;28;20116;-72
2024/03/28 10:48:04;;;;;;;3.72;0.82;;;9.10;99.90;;;;;;5007929;28;20137;-72
2024/03/28 10:51:01;;;;;;;4.63;1.15;;;9.10;99.90;;;;;;5011344;28;20136;-71
2024/03/28 10:53:48;;;;;;;2.17;1.17;;;9.30;99.90;;;;;;5006101;28;20050;-72
2024/03/28 10:56:17;;;;;;;8.40;1.10;;;9.40;99.90;;;;;;5008086;28;20129;-72
2024/03/28 10:58:44;;;;;;;2.30;1.13;;;9.40;99.90;;;;;;5012181;28;20042;-73
2024/03/28 11:01:09;;;;;;;12.27;1.60;;;9.40;99.90;;;;;;5014203;28;20040;-71
2024/03/28 11:03:36;;;;;;;3.50;1.27;;;9.40;99.90;;;;;;5012667;28;20037;-73
2024/03/28 11:06:02;;;;;;;7.40;1.13;;;9.40;99.90;;;;;;5009747;28;20034;-72
2024/03/28 11:08:30;;;;;;;10.20;1.23;;;9.50;99.90;;;;;;4991552;28;20390;-71
2024/03/28 11:11:00;;;;;;;6.30;1.10;;;9.60;99.90;;;;;;5011006;28;20383;-73
2024/03/28 11:13:27;;;;;;;4.32;1.00;;;9.80;99.90;;;;;;4995257;28;20045;-72
2024/03/28 11:16:03;;;;;;;4.20;1.08;;;9.90;99.90;;;;;;5009305;28;20046;-72
2024/03/28 11:18:32;;;;;;;6.88;1.30;;;10.10;99.90;;;;;;5010334;28;20041;-72
2024/03/28 11:20:59;;;;;;;4.40;1.35;;;10.30;99.90;;;;;;5009654;28;20036;-73
2024/03/28 11:23:26;;;;;;;3.70;0.55;;;10.40;99.90;;;;;;5014860;28;20061;-72
2024/03/28 11:26:05;;;;;;;5.75;0.88;;;10.50;99.90;;;;;;5012663;28;20061;-72
2024/03/28 11:28:32;;;;;;;5.43;0.57;;;10.60;99.90;;;;;;5012010;28;20037;-72
2024/03/28 11:30:58;;;;;;;5.07;1.00;;;10.50;99.90;;;;;;4993486;28;20034;-72
2024/03/28 11:33:31;;;;;;;2.72;0.22;;;10.50;99.90;;;;;;5011418;28;20060;-71
2024/03/28 11:36:02;;;;;;;2.20;0.38;;;10.60;99.90;;;;;;5014662;28;20132;-71
2024/03/28 11:38:28;;;;;;;4.13;0.55;;;10.60;99.90;;;;;;5010153;28;20038;-72
2024/03/28 11:40:54;;;;;;;4.60;0.50;;;10.60;99.90;;;;;;5012564;28;20046;-72
2024/03/28 11:43:23;;;;;;;2.95;0.43;;;10.60;99.90;;;;;;5004009;28;20129;-72
2024/03/28 11:45:49;;;;;;;2.00;0.40;;;10.60;99.90;;;;;;4982076;28;20850;-71
2024/03/28 11:48:15;;;;;;;3.58;0.50;;;10.70;99.90;;;;;;4958641;28;20026;-72
2024/03/28 11:50:41;;;;;;;4.20;0.98;;;10.80;99.90;;;;;;5001680;28;20038;-73
2024/03/28 11:53:08;;;;;;;6.18;0.63;;;10.80;99.90;;;;;;5009794;28;20045;-72
2024/03/28 11:55:40;;;;;;;1.88;0.88;;;10.70;99.90;;;;;;5014047;28;20033;-72
2024/03/28 11:58:19;;;;;;;6.18;1.02;;;10.80;99.90;;;;;;5012907;28;20037;-72
2024/03/28 12:00:45;;;;;;;7.15;0.60;;;10.80;99.90;;;;;;5011385;28;20041;-73
2024/03/28 12:03:11;;;;;;;1.40;0.40;;;10.90;99.90;;;;;;5013084;28;20029;-73
2024/03/28 12:05:38;;;;;;;1.23;0.43;;;10.90;99.90;;;;;;5012470;28;20034;-74
2024/03/28 12:08:04;;;;;;;2.47;0.38;;;10.90;99.90;;;;;;5013107;28;20037;-72
2024/03/28 12:10:32;;;;;;;3.55;0.40;;;11.00;99.90;;;;;;5011949;28;20029;-71
2024/03/28 12:12:59;;;;;;;2.63;0.88;;;11.00;99.90;;;;;;5018115;28;20121;-73
2024/03/28 12:15:25;;;;;;;1.05;0.25;;;11.00;99.90;;;;;;5008272;28;20519;-73
2024/03/28 12:17:55;;;;;;;6.05;0.40;;;11.20;99.90;;;;;;5015750;28;20049;-72
2024/03/28 12:20:21;;;;;;;7.13;1.35;;;11.20;99.90;;;;;;5016869;28;20033;-73
2024/03/28 12:22:52;;;;;;;1.67;0.30;;;11.20;99.90;;;;;;5015926;28;20030;-72
2024/03/28 12:25:18;;;;;;;1.50;0.35;;;11.20;99.90;;;;;;5021496;28;20033;-72
2024/03/28 12:27:58;;;;;;;2.30;0.30;;;11.30;99.90;;;;;;5016223;28;20030;-73
2024/03/28 12:30:25;;;;;;;2.05;0.28;;;11.30;99.90;;;;;;5009083;28;20038;-73
2024/03/28 12:33:06;;;;;;;1.13;0.35;;;11.30;99.90;;;;;;5014165;28;20037;-71
2024/03/28 12:35:35;;;;;;;1.13;0.20;;;11.40;99.90;;;;;;5014508;28;20810;-72
2024/03/28 12:38:03;;;;;;;0.82;0.20;;;11.40;99.90;;;;;;5016090;28;20121;-70
2024/03/28 12:40:30;;;;;;;3.80;0.52;;;11.50;99.90;;;;;;5013504;28;20116;-72
2024/03/28 12:42:56;;;;;;;1.15;0.35;;;11.70;99.90;;;;;;5014756;28;20767;-72
2024/03/28 12:45:23;;;;;;;1.40;0.40;;;11.80;99.90;;;;;;5015435;28;20065;-72
2024/03/28 12:47:50;;;;;;;2.88;0.80;;;11.90;99.90;;;;;;5012553;28;20109;-72
2024/03/28 12:50:18;;;;;;;2.15;0.30;;;12.00;99.90;;;;;;5009891;28;20128;-73
2024/03/28 12:52:48;;;;;;;1.10;0.38;;;12.20;99.90;;;;;;5014668;28;20034;-73
2024/03/28 12:55:14;;;;;;;2.25;0.28;;;12.30;99.90;;;;;;4999782;28;20041;-72
2024/03/28 12:57:40;;;;;;;3.10;0.30;;;12.50;99.90;;;;;;5014817;28;20021;-73
2024/03/28 13:00:08;;;;;;;1.35;0.20;;;12.70;99.90;;;;;;5013009;28;20731;-72